Flight Track Log - Related Links

Times and Time Zones

All times are in EDT time to prevent confusion due to time zone crossing. See the AWI3704 flight status page for this flight to view local times or setup timezone preferences in your user account.

Time Position Orientation Groundspeed Altitude Reporting Facility
EDT Latitude Longitude Course Direction KTS MPH feet Rate Location/Type
Sun 10:02:38 AM 39.8833 -75.2167 37° Northeast 162 186 1,200  Level Philadelphia TRACON
Sun 10:03:09 AM 39.8667 -75.1833 123° Southeast 161 185 2,400 2,289 Climbing Philadelphia TRACON
Sun 10:04:15 AM 39.8667 -75.1000 90° East 285 328 4,900 2,631 Climbing Philadelphia TRACON
Sun 10:05:00 AM 39.8167 -74.9130 90° East  Level FlightAware Approximate
Sun 10:06:00 AM 39.8039 -74.8026 105° East  Level FlightAware Approximate
Sun 10:06:16 AM 39.8267 -74.8983 104° East 294 338 10,600  Level New York Center
Sun 10:07:00 AM 39.7873 -74.6961 37° Northeast  Level FlightAware Approximate
Sun 10:07:15 AM 39.8092 -74.7972 103° East 309 356 12,000  Level New York Center
Sun 10:08:00 AM 39.8558 -74.6276 37° Northeast  Level FlightAware Approximate
Sun 10:08:17 AM 39.8219 -74.6683 83° East 343 395 13,200  Level New York Center
Sun 10:09:17 AM 39.9036 -74.5972 34° Northeast 307 353 16,000 2,622 Climbing New York Center
Sun 10:10:16 AM 39.9850 -74.5258 34° Northeast 317 365 18,400 2,100 Climbing New York Center
Sun 10:11:17 AM 40.0644 -74.4514 36° Northeast 336 387 20,200 1,736 Climbing New York Center
Sun 10:12:17 AM 40.1439 -74.3742 37° Northeast 346 398 21,900 1,664 Climbing New York Center
Sun 10:13:16 AM 40.2258 -74.2914 38° Northeast 352 405 23,500 1,059 Climbing New York Center
Sun 10:14:16 AM 40.3172 -74.2253 29° Northeast 357 411 24,000 248 Climbing New York Center
Sun 10:15:17 AM 40.4153 -74.1483 31° Northeast 387 445 24,000  Level New York Center
Sun 10:16:53 AM 40.6014 -74.0117 29° Northeast 440 506 24,000  Level Boston Center
Sun 10:17:53 AM 40.7108 -73.9322 29° Northeast 447 514 24,000  Level Boston Center
Sun 10:18:53 AM 40.8164 -73.8333 35° Northeast 452 520 24,000  Level Boston Center
Sun 10:19:53 AM 40.9136 -73.7172 42° Northeast 464 534 24,000 -300 Level Boston Center
Sun 10:20:53 AM 41.0125 -73.6147 38° Northeast 464 534 23,400 -500 Descending Boston Center
Sun 10:21:53 AM 41.1258 -73.5394 27° Northeast 454 522 23,000 -773 Descending Boston Center
Sun 10:23:05 AM 41.2600 -73.4453 28° Northeast 449 517 21,700 -1,136 Descending Boston Center
Sun 10:24:05 AM 41.3539 -73.4411 North 424 488 20,500 -1,300 Descending Boston Center
Sun 10:25:05 AM 41.4725 -73.4514 356° North 398 458 19,100 -1,250 Descending Boston Center
Sun 10:26:05 AM 41.5956 -73.4672 355° North 392 451 18,000 -1,100 Descending Boston Center
Sun 10:27:05 AM 41.6933 -73.4797 355° North 401 461 16,900 -1,450 Descending Boston Center
Sun 10:28:05 AM 41.8142 -73.4931 355° North 396 456 15,100 -1,600 Descending Boston Center
Sun 10:29:05 AM 41.9097 -73.5031 356° North 396 456 13,700 -1,513 Descending Boston Center
Sun 10:30:04 AM 42.0242 -73.5189 354° North 383 441 12,100 -1,300 Descending Boston Center
Sun 10:31:05 AM 42.1200 -73.5261 357° North 385 443 11,100 -545 Descending Boston Center
Sun 10:32:05 AM 42.2136 -73.5586 346° North 367 422 11,000 -793 Descending Boston Center
Sun 10:33:06 AM 42.3028 -73.5939 344° North 282 325 9,500 -1,388 Descending Boston Center
Sun 10:34:06 AM 42.3817 -73.6178 347° North 285 328 8,200 -1,388 Descending Boston Center
Sun 10:35:07 AM 42.4589 -73.6306 353° North 280 322 6,700 -1,475 Descending Boston Center
Sun 10:36:08 AM 42.5317 -73.6375 356° North 266 306 5,200 -1,289 Descending Boston Center
Sun 10:37:08 AM 42.6106 -73.6558 350° North 275 316 4,100 -545 Descending Boston Center
Sun 10:38:09 AM 42.6772 -73.6686 352° North 237 273 4,100 -148 Level Boston Center
Sun 10:39:10 AM 42.7522 -73.6700 359° North 252 290 3,800 -496 Descending Boston Center
Sun 10:40:10 AM 42.8189 -73.6686 North 253 291 3,100 -397 Descending Boston Center
Sun 10:41:11 AM 42.8831 -73.7011 340° North 247 284 3,000 -496 Descending Boston Center
Sun 10:42:11 AM 42.9389 -73.7447 330° Northwest 238 274 2,100 -446 Descending Boston Center
Sun 10:43:12 AM 42.9217 -73.7925 244° Southwest 150 173 2,100  Level Boston Center

Login

Don't have an account? Register now (free) for customized features, flight alerts, and more!